Time;durP1;ratioP1;P1;durP2;ratioP2;P2;SDS_P1;SDS_P2;PMS_P1;PMS_P2;Temp;Humidity;BMP_temperature;BMP_pressure;BME280_temperature;BME280_humidity;BME280_pressure;Samples;Min_cycle;Max_cycle;Signal;HPM_P1;HPM_P2
2022/07/21 00:02:21;;;;;;;9.07;7.50;;;;;;;20.73;78.63;101645.03;5246001;28;20052;-76
2022/07/21 00:04:53;;;;;;;8.17;7.37;;;;;;;20.80;78.27;101655.97;5249634;28;20031;-76
2022/07/21 00:07:24;;;;;;;8.87;7.80;;;;;;;20.71;78.64;101652.31;5249489;28;20028;-76
2022/07/21 00:09:55;;;;;;;8.80;7.87;;;;;;;20.62;79.05;101648.66;5250183;28;20025;-76
2022/07/21 00:12:26;;;;;;;10.07;8.07;;;;;;;20.61;79.43;101656.78;5249599;28;20032;-76
2022/07/21 00:14:58;;;;;;;8.80;7.60;;;;;;;20.58;79.52;101657.06;5250138;28;20029;-76
2022/07/21 00:17:29;;;;;;;9.60;7.37;;;;;;;20.52;79.80;101648.66;5249695;28;20017;-76
2022/07/21 00:20:01;;;;;;;8.63;7.60;;;;;;;20.45;80.66;101642.22;5250517;28;20094;-76
2022/07/21 00:22:33;;;;;;;10.40;7.17;;;;;;;20.42;80.95;101645.97;5222052;28;20099;-76
2022/07/21 00:25:06;;;;;;;9.10;7.60;;;;;;;20.47;80.35;101650.91;5249911;28;20521;-77
2022/07/21 00:27:38;;;;;;;9.03;8.13;;;;;;;20.30;81.11;101655.91;5249997;28;20033;-76
2022/07/21 00:30:11;;;;;;;13.50;8.00;;;;;;;20.41;81.00;101659.41;5250169;28;20437;-76
2022/07/21 00:32:43;;;;;;;10.50;8.70;;;;;;;20.23;81.85;101649.44;5245002;28;20624;-76
2022/07/21 00:35:14;;;;;;;9.60;7.63;;;;;;;20.33;81.92;101659.25;5244295;28;20039;-76
2022/07/21 00:37:46;;;;;;;13.83;8.53;;;;;;;20.15;82.62;101657.25;5249481;28;20858;-77
2022/07/21 00:40:17;;;;;;;9.97;8.67;;;;;;;20.25;81.93;101658.13;5242730;28;20025;-77
2022/07/21 00:42:48;;;;;;;8.63;7.83;;;;;;;20.23;82.33;101660.06;5245877;28;20115;-76
2022/07/21 00:45:20;;;;;;;9.57;8.27;;;;;;;20.18;82.70;101664.97;5229179;28;20033;-76
2022/07/21 00:47:51;;;;;;;9.20;8.30;;;;;;;20.16;82.66;101649.16;5248619;28;20043;-77
2022/07/21 00:50:23;;;;;;;9.27;8.30;;;;;;;20.26;82.20;101653.66;5249884;28;20021;-76
2022/07/21 00:52:54;;;;;;;10.80;9.70;;;;;;;20.12;83.23;101654.88;5231937;28;20060;-76
2022/07/21 00:55:26;;;;;;;9.47;8.20;;;;;;;19.92;83.05;101617.56;5249261;28;20543;-76
2022/07/21 00:57:57;;;;;;;9.23;8.33;;;;;;;20.10;83.41;101654.16;5249180;28;20157;-77
2022/07/21 01:00:29;;;;;;;9.70;8.70;;;;;;;20.14;83.54;101658.25;5231504;28;20539;-76
2022/07/21 01:03:01;;;;;;;10.30;8.87;;;;;;;20.07;83.93;101656.13;5250201;28;20385;-77
2022/07/21 01:05:33;;;;;;;9.60;8.53;;;;;;;20.13;83.39;101648.56;5250502;28;20036;-77
2022/07/21 01:08:05;;;;;;;12.37;9.30;;;;;;;20.09;83.63;101645.34;5250133;28;20021;-76
2022/07/21 01:10:37;;;;;;;11.03;9.27;;;;;;;19.97;84.82;101638.44;5249421;28;20063;-76
2022/07/21 01:13:08;;;;;;;13.07;10.50;;;;;;;19.89;85.03;101634.63;5250247;28;20671;-76
2022/07/21 01:15:40;;;;;;;10.80;9.67;;;;;;;20.03;84.59;101628.09;5249865;28;20025;-77
2022/07/21 01:18:12;;;;;;;11.03;8.87;;;;;;;19.77;86.63;101633.03;5250414;28;20021;-77
2022/07/21 01:20:50;;;;;;;11.00;9.90;;;;;;;19.82;86.23;101630.81;5233140;28;20119;-77
2022/07/21 01:23:21;;;;;;;11.23;10.00;;;;;;;19.82;86.12;101620.19;5250374;28;20677;-76
2022/07/21 01:25:53;;;;;;;10.47;9.23;;;;;;;19.87;85.95;101628.59;5250563;28;20096;-77
2022/07/21 01:28:24;;;;;;;10.63;9.53;;;;;;;19.88;86.09;101624.13;5232776;28;20032;-76
2022/07/21 01:30:55;;;;;;;12.83;10.07;;;;;;;19.79;86.56;101615.97;5231513;28;20025;-76
2022/07/21 01:33:27;;;;;;;10.47;9.33;;;;;;;19.75;86.63;101619.03;5249898;28;20074;-77
2022/07/21 01:35:58;;;;;;;12.23;10.83;;;;;;;19.73;87.35;101632.47;5249848;28;20036;-77
2022/07/21 01:41:34;;;;;;;11.17;10.00;;;;;;;19.67;87.80;101627.69;5250211;28;20029;-77
2022/07/21 01:44:07;;;;;;;10.90;9.80;;;;;;;19.54;89.13;101625.25;5250231;28;20056;-77
2022/07/21 01:46:46;;;;;;;12.90;9.70;;;;;;;19.68;88.96;101632.03;5248872;28;20063;-77
2022/07/21 01:49:19;;;;;;;11.33;9.33;;;;;;;19.63;89.22;101634.22;5249992;28;20655;-76
2022/07/21 01:51:51;;;;;;;11.83;9.47;;;;;;;19.62;89.71;101641.34;5249649;28;20028;-76
2022/07/21 01:54:22;;;;;;;11.50;9.37;;;;;;;19.32;93.89;101635.88;5249783;28;20025;-76
2022/07/21 01:56:54;;;;;;;10.60;9.50;;;;;;;19.41;94.09;101622.81;5249921;28;20032;-76
2022/07/21 01:59:25;;;;;;;10.67;9.50;;;;;;;19.62;92.76;101633.38;5231888;28;20017;-78
2022/07/21 02:01:56;;;;;;;10.93;9.87;;;;;;;19.27;95.26;101634.63;5230468;28;20052;-75
2022/07/21 02:04:28;;;;;;;12.03;10.57;;;;;;;19.60;93.66;101627.38;5249377;28;20109;-75
2022/07/21 02:07:00;;;;;;;12.03;10.30;;;;;;;19.52;94.15;101624.53;5249804;28;20081;-75
2022/07/21 02:09:32;;;;;;;12.73;11.20;;;;;;;19.45;94.16;101608.28;5231618;28;20048;-75
2022/07/21 02:12:04;;;;;;;13.43;11.40;;;;;;;19.54;94.09;101634.06;5249755;28;20033;-75
2022/07/21 02:14:35;;;;;;;11.37;10.20;;;;;;;19.48;94.94;101631.09;5231968;28;20025;-75
2022/07/21 02:17:06;;;;;;;12.90;11.70;;;;;;;19.64;93.49;101633.25;5247714;28;20025;-75
2022/07/21 02:19:37;;;;;;;12.50;11.17;;;;;;;19.55;94.38;101632.22;5231966;28;20112;-75
2022/07/21 02:22:09;;;;;;;13.33;11.63;;;;;;;19.42;95.61;101635.09;5249171;28;20040;-75
2022/07/21 02:24:40;;;;;;;12.03;10.87;;;;;;;19.50;95.10;101627.31;5249559;28;20052;-76
2022/07/21 02:27:12;;;;;;;14.97;13.47;;;;;;;19.43;95.77;101628.81;5249453;28;20025;-75
2022/07/21 02:29:43;;;;;;;13.93;12.53;;;;;;;19.48;96.31;101615.97;5249202;28;20033;-77
2022/07/21 02:32:14;;;;;;;14.57;12.50;;;;;;;19.43;96.50;101618.19;5248306;28;20032;-76
2022/07/21 02:34:46;;;;;;;12.37;11.17;;;;;;;19.40;96.82;101615.81;5248742;28;20056;-77
2022/07/21 02:37:17;;;;;;;13.60;12.17;;;;;;;19.37;96.84;101622.22;5248913;28;20052;-76
2022/07/21 02:39:49;;;;;;;13.07;11.80;;;;;;;19.40;96.73;101621.13;5249598;28;20021;-77
2022/07/21 02:42:20;;;;;;;14.43;13.00;;;;;;;19.39;96.60;101628.22;5249000;28;20859;-76
2022/07/21 02:44:51;;;;;;;14.60;12.27;;;;;;;19.26;97.35;101616.97;5248878;28;20121;-75
2022/07/21 02:47:22;;;;;;;13.30;12.00;;;;;;;19.40;96.65;101607.84;5248081;28;20086;-76
2022/07/21 02:49:54;;;;;;;14.33;12.83;;;;;;;19.28;97.95;101602.63;5249317;28;20475;-76
2022/07/21 02:52:25;;;;;;;14.70;13.20;;;;;;;19.36;97.60;101614.41;5248725;28;20637;-76
2022/07/21 02:54:56;;;;;;;14.40;12.27;;;;;;;19.40;97.52;101606.03;5248437;28;20061;-76
2022/07/21 02:57:28;;;;;;;14.33;12.47;;;;;;;19.40;97.36;101615.81;5251066;28;20437;-77
2022/07/21 02:59:59;;;;;;;14.40;12.97;;;;;;;19.31;98.42;101620.09;5230594;28;20087;-77
2022/07/21 03:02:30;;;;;;;14.57;12.77;;;;;;;19.34;99.37;101618.00;5251808;28;20037;-76
2022/07/21 03:05:03;;;;;;;14.63;13.20;;;;;;;19.39;98.39;101616.78;5253020;28;20090;-77
2022/07/21 03:07:34;;;;;;;16.63;14.10;;;;;;;19.28;99.61;101612.38;5234012;28;20025;-77
2022/07/21 03:10:06;;;;;;;16.17;14.60;;;;;;;19.40;98.26;101615.81;5255322;28;20017;-76
2022/07/21 03:12:37;;;;;;;17.90;13.37;;;;;;;19.46;98.13;101612.63;5255128;28;20032;-76
2022/07/21 03:15:09;;;;;;;17.67;14.53;;;;;;;19.38;98.91;101610.63;5251892;28;20033;-77
2022/07/21 03:17:40;;;;;;;13.90;12.57;;;;;;;19.41;98.60;101597.06;5252835;28;20369;-76
2022/07/21 03:20:12;;;;;;;19.50;13.20;;;;;;;19.40;98.75;101594.56;5252078;28;20024;-76
2022/07/21 03:22:43;;;;;;;15.47;13.33;;;;;;;19.38;99.37;101604.47;5252377;28;20040;-76
2022/07/21 03:25:15;;;;;;;17.97;13.80;;;;;;;19.33;99.52;101595.09;5252813;28;20096;-77
2022/07/21 03:27:47;;;;;;;17.53;15.63;;;;;;;19.34;99.45;101611.84;5253905;28;20035;-77
2022/07/21 03:30:19;;;;;;;19.70;14.27;;;;;;;19.38;98.82;101609.78;5233466;28;20044;-76
2022/07/21 03:32:51;;;;;;;17.30;14.77;;;;;;;19.33;99.04;101611.03;5234229;28;20134;-76
2022/07/21 03:35:22;;;;;;;16.53;15.00;;;;;;;19.19;100.00;101608.69;5252081;28;20029;-76
2022/07/21 03:37:57;;;;;;;20.23;14.17;;;;;;;19.34;100.00;101607.38;5251635;28;20052;-76
2022/07/21 03:40:34;;;;;;;14.57;12.93;;;;;;;19.32;100.00;101609.31;5252697;28;20032;-77
2022/07/21 03:43:08;;;;;;;15.13;13.43;;;;;;;19.39;100.00;101609.63;5251514;28;20021;-77
2022/07/21 03:45:39;;;;;;;17.42;14.77;;;;;;;19.34;100.00;101618.00;5249178;28;20025;-77
2022/07/21 03:48:11;;;;;;;17.37;13.40;;;;;;;19.32;100.00;101606.66;5231320;28;20037;-77
2022/07/21 03:50:42;;;;;;;16.07;12.87;;;;;;;19.34;100.00;101618.00;5235897;28;20025;-77
2022/07/21 03:53:13;;;;;;;15.57;13.77;;;;;;;19.38;100.00;101620.41;5234005;28;20031;-77
2022/07/21 03:55:45;;;;;;;15.87;13.67;;;;;;;19.28;100.00;101610.59;5248089;28;20025;-77
2022/07/21 03:58:17;;;;;;;15.13;13.40;;;;;;;19.38;100.00;101623.06;5243413;28;20140;-76
2022/07/21 04:00:48;;;;;;;16.93;13.07;;;;;;;19.28;100.00;101633.63;5250731;28;20653;-76
2022/07/21 04:03:20;;;;;;;18.07;13.30;;;;;;;19.28;100.00;101621.19;5251171;28;20119;-76
2022/07/21 04:05:52;;;;;;;18.67;13.67;;;;;;;19.22;100.00;101625.22;5251061;28;20036;-76
2022/07/21 04:08:23;;;;;;;15.57;12.90;;;;;;;19.31;100.00;101633.38;5250825;28;20100;-77
2022/07/21 04:10:55;;;;;;;16.37;12.83;;;;;;;19.21;100.00;101631.50;5253226;28;20163;-77
2022/07/21 04:13:27;;;;;;;15.10;12.90;;;;;;;19.20;100.00;101632.47;5251584;28;20095;-75
2022/07/21 04:15:58;;;;;;;15.57;12.80;;;;;;;19.08;100.00;101620.19;5232337;28;20029;-77
2022/07/21 04:18:29;;;;;;;16.60;13.13;;;;;;;19.31;100.00;101639.53;5251500;28;20565;-78
2022/07/21 04:21:00;;;;;;;16.63;12.40;;;;;;;19.15;100.00;101644.47;5250919;28;20021;-78
2022/07/21 04:23:32;;;;;;;22.20;13.83;;;;;;;19.20;100.00;101621.84;5234001;28;20100;-75
2022/07/21 04:26:03;;;;;;;16.10;13.60;;;;;;;19.12;100.00;101619.00;5250738;28;20029;-76
2022/07/21 04:28:34;;;;;;;18.43;12.60;;;;;;;19.19;100.00;101624.63;5233072;28;20112;-76
2022/07/21 04:31:06;;;;;;;16.00;13.73;;;;;;;19.19;100.00;101627.28;5250133;28;20682;-76
2022/07/21 04:33:37;;;;;;;17.00;13.00;;;;;;;19.07;100.00;101621.16;5250634;28;20044;-76
2022/07/21 04:36:09;;;;;;;15.60;13.77;;;;;;;19.11;100.00;101625.28;5250974;28;20037;-76
2022/07/21 04:38:40;;;;;;;17.60;12.43;;;;;;;19.02;100.00;101608.28;5250279;28;20033;-76
2022/07/21 04:41:11;;;;;;;15.60;13.60;;;;;;;18.90;100.00;101625.25;5250455;28;20056;-76
2022/07/21 04:43:42;;;;;;;14.60;12.97;;;;;;;19.07;100.00;101627.31;5251102;28;20056;-77
2022/07/21 04:46:15;;;;;;;16.80;12.90;;;;;;;18.95;100.00;101615.94;5249480;28;20028;-76
2022/07/21 04:48:46;;;;;;;17.53;13.30;;;;;;;18.99;100.00;101616.50;5250183;28;20036;-75
2022/07/21 04:51:17;;;;;;;17.13;13.53;;;;;;;18.97;100.00;101621.94;5250321;28;20029;-78
2022/07/21 04:53:49;;;;;;;17.90;13.27;;;;;;;18.98;100.00;101628.09;5251555;28;20082;-76
2022/07/21 04:56:20;;;;;;;16.70;14.13;;;;;;;18.95;100.00;101623.03;5241735;28;20034;-76
2022/07/21 04:58:51;;;;;;;18.93;13.40;;;;;;;18.94;100.00;101629.31;5239052;28;20033;-76
2022/07/21 05:01:23;;;;;;;16.63;13.23;;;;;;;18.86;100.00;101628.16;5228781;28;20037;-76
2022/07/21 05:03:54;;;;;;;16.60;13.47;;;;;;;18.83;100.00;101615.13;5229272;28;20068;-75
2022/07/21 05:06:25;;;;;;;17.60;12.90;;;;;;;18.81;100.00;101625.03;5229302;28;20025;-75
2022/07/21 05:08:57;;;;;;;14.23;12.50;;;;;;;18.84;100.00;101630.09;5221409;28;20108;-77
2022/07/21 05:11:28;;;;;;;14.40;12.53;;;;;;;18.84;100.00;101627.44;5238764;28;20036;-77
2022/07/21 05:13:59;;;;;;;14.23;12.30;;;;;;;18.75;100.00;101630.84;5239342;28;20518;-77
2022/07/21 05:16:30;;;;;;;13.80;12.30;;;;;;;18.69;100.00;101624.25;5239567;28;20074;-76
2022/07/21 05:19:02;;;;;;;15.37;11.60;;;;;;;18.77;100.00;101630.72;5246064;28;20029;-76
2022/07/21 05:21:34;;;;;;;13.73;11.87;;;;;;;18.77;100.00;101620.94;5233137;28;20036;-75
2022/07/21 05:24:05;;;;;;;17.63;12.73;;;;;;;18.81;100.00;101622.38;5230377;28;20033;-76
2022/07/21 05:26:37;;;;;;;16.80;12.10;;;;;;;18.85;100.00;101626.44;5250424;28;20021;-76
2022/07/21 05:29:08;;;;;;;13.93;11.77;;;;;;;18.84;100.00;101627.44;5232085;28;20021;-76
2022/07/21 05:31:39;;;;;;;13.27;11.27;;;;;;;18.95;100.00;101620.38;5246864;28;20041;-75
2022/07/21 05:34:11;;;;;;;17.53;11.87;;;;;;;18.87;100.00;101618.38;5247376;28;20129;-74
2022/07/21 05:36:42;;;;;;;11.83;9.90;;;;;;;18.92;100.00;101612.69;5247926;28;20159;-74
2022/07/21 05:39:13;;;;;;;13.73;12.07;;;;;;;18.93;100.00;101611.72;5248077;28;20028;-74
2022/07/21 05:41:45;;;;;;;17.50;11.63;;;;;;;18.86;100.00;101606.06;5250723;28;20025;-74
2022/07/21 05:44:16;;;;;;;22.67;12.33;;;;;;;18.91;100.00;101616.31;5249331;28;20112;-74
2022/07/21 05:46:47;;;;;;;23.10;12.50;;;;;;;18.85;100.00;101617.69;5248486;28;20089;-73
2022/07/21 05:49:19;;;;;;;16.07;11.30;;;;;;;18.90;100.00;101617.28;5248791;28;20036;-73
2022/07/21 05:51:50;;;;;;;17.47;11.50;;;;;;;18.94;100.00;101611.56;5235256;28;20376;-74
2022/07/21 05:54:21;;;;;;;15.07;12.00;;;;;;;18.99;100.00;101608.53;5228772;28;20086;-78
2022/07/21 05:56:53;;;;;;;18.07;11.93;;;;;;;18.96;100.00;101616.75;5244803;28;20864;-76
2022/07/21 05:59:24;;;;;;;19.33;13.50;;;;;;;19.04;100.00;101616.13;5240167;28;20028;-80
2022/07/21 06:01:55;;;;;;;17.93;14.03;;;;;;;19.01;100.00;101616.38;5238624;28;20123;-80
2022/07/21 06:04:27;;;;;;;19.23;14.60;;;;;;;19.09;100.00;101622.72;5238465;28;20100;-77
2022/07/21 06:06:58;;;;;;;15.30;13.63;;;;;;;19.13;100.00;101625.16;5236968;28;20028;-77
2022/07/21 06:09:29;;;;;;;20.97;14.67;;;;;;;19.12;100.00;101620.81;5238460;28;20078;-77
2022/07/21 06:12:01;;;;;;;24.57;15.87;;;;;;;19.12;100.00;101626.13;5239058;28;20025;-77
2022/07/21 06:14:32;;;;;;;24.00;15.70;;;;;;;19.10;100.00;101618.25;5237664;28;20026;-78
2022/07/21 06:17:03;;;;;;;22.20;16.17;;;;;;;19.17;100.00;101610.63;5243465;28;20025;-78
2022/07/21 06:19:35;;;;;;;24.30;16.17;;;;;;;19.26;100.00;101620.50;5249911;28;20040;-74
2022/07/21 06:22:06;;;;;;;29.27;18.07;;;;;;;19.38;100.00;101623.91;5247113;28;20535;-77
2022/07/21 06:24:37;;;;;;;23.33;17.00;;;;;;;19.43;100.00;101612.88;5194910;28;20041;-77
2022/07/21 06:27:09;;;;;;;27.90;19.97;;;;;;;19.54;100.00;101607.50;5242492;28;20039;-77
2022/07/21 06:29:40;;;;;;;28.27;17.70;;;;;;;19.61;100.00;101613.13;5241094;28;20117;-78
2022/07/21 06:32:11;;;;;;;25.27;17.87;;;;;;;19.83;100.00;101609.41;5230836;28;20642;-78
2022/07/21 06:34:42;;;;;;;28.80;18.43;;;;;;;19.97;100.00;101611.84;5238559;28;20060;-77
2022/07/21 06:37:14;;;;;;;27.67;18.63;;;;;;;20.00;100.00;101612.41;5246090;28;20067;-77
2022/07/21 06:39:45;;;;;;;26.73;18.77;;;;;;;20.09;100.00;101621.41;5225541;28;20033;-77
2022/07/21 06:42:16;;;;;;;23.17;17.67;;;;;;;19.93;100.00;101611.28;5234893;28;20025;-77
2022/07/21 06:44:48;;;;;;;24.70;18.60;;;;;;;20.09;100.00;101631.22;5215494;28;20128;-76
2022/07/21 06:47:19;;;;;;;28.80;19.70;;;;;;;20.00;100.00;101630.19;5229276;28;20030;-76
2022/07/21 06:49:51;;;;;;;24.00;19.03;;;;;;;19.96;100.00;101621.63;5214093;28;20029;-75
2022/07/21 06:52:22;;;;;;;28.33;19.70;;;;;;;20.04;100.00;101629.81;5209740;28;20048;-76
2022/07/21 06:54:53;;;;;;;22.10;18.70;;;;;;;19.99;100.00;101623.16;5212373;28;20041;-76
2022/07/21 06:57:24;;;;;;;24.03;17.60;;;;;;;19.88;100.00;101619.63;5224590;28;20060;-81
2022/07/21 06:59:56;;;;;;;24.80;19.13;;;;;;;19.93;100.00;101632.53;5223382;28;20028;-80
2022/07/21 07:02:27;;;;;;;26.23;18.20;;;;;;;19.96;100.00;101637.59;5221881;28;20045;-80
2022/07/21 07:04:58;;;;;;;23.77;18.43;;;;;;;19.97;100.00;101644.56;5210195;28;20175;-80
2022/07/21 07:07:30;;;;;;;28.93;18.43;;;;;;;19.96;100.00;101653.53;5226289;28;20391;-82
2022/07/21 07:10:02;;;;;;;22.93;18.83;;;;;;;19.92;100.00;101660.94;5223564;28;20125;-83
2022/07/21 07:12:33;;;;;;;22.53;17.70;;;;;;;19.81;100.00;101645.91;5229879;28;20036;-81
2022/07/21 07:15:05;;;;;;;18.90;16.03;;;;;;;19.78;100.00;101646.19;5234427;28;20723;-79
2022/07/21 07:17:37;;;;;;;25.90;18.03;;;;;;;19.68;100.00;101643.50;5244305;28;20029;-79
2022/07/21 07:20:08;;;;;;;25.60;18.10;;;;;;;19.76;100.00;101653.44;5229883;28;20057;-77
2022/07/21 07:22:40;;;;;;;28.73;19.63;;;;;;;19.70;100.00;101646.03;5236468;28;20036;-81
2022/07/21 07:25:11;;;;;;;23.50;17.57;;;;;;;19.66;100.00;101641.94;5242699;28;21196;-80
2022/07/21 07:27:45;;;;;;;29.13;18.77;;;;;;;19.70;100.00;101641.56;5243648;28;20652;-80
2022/07/21 07:30:18;;;;;;;28.42;18.60;;;;;;;19.71;100.00;101637.06;5243697;28;20036;-80
2022/07/21 07:32:50;;;;;;;27.10;16.87;;;;;;;19.58;100.00;101643.44;5234215;28;20128;-80
2022/07/21 07:35:21;;;;;;;22.20;16.23;;;;;;;19.67;100.00;101640.97;5236603;28;20380;-80
2022/07/21 07:37:53;;;;;;;27.13;17.90;;;;;;;19.71;100.00;101647.69;5250007;28;20025;-80
2022/07/21 07:40:24;;;;;;;25.07;16.87;;;;;;;19.67;100.00;101654.25;5246492;28;20033;-81
2022/07/21 07:42:56;;;;;;;23.23;17.17;;;;;;;19.49;100.00;101633.63;5238851;28;20550;-81
2022/07/21 07:45:27;;;;;;;19.97;15.93;;;;;;;19.51;100.00;101644.97;5234485;28;20037;-81
2022/07/21 07:47:58;;;;;;;22.03;14.20;;;;;;;19.41;100.00;101644.06;5250309;28;20033;-82
2022/07/21 07:50:30;;;;;;;15.80;12.67;;;;;;;19.32;100.00;101648.34;5224887;28;20033;-82
2022/07/21 07:53:01;;;;;;;18.67;13.23;;;;;;;19.22;100.00;101649.13;5240851;28;20037;-83
2022/07/21 07:55:33;;;;;;;18.60;13.00;;;;;;;19.25;100.00;101653.34;5236279;28;20112;-83
2022/07/21 07:58:05;;;;;;;13.03;11.07;;;;;;;19.09;100.00;101651.91;5230575;28;20454;-82
2022/07/21 08:00:42;;;;;;;14.07;12.23;;;;;;;19.21;100.00;101654.56;5239328;28;20112;-83
2022/07/21 08:03:13;;;;;;;16.77;11.90;;;;;;;18.95;100.00;101657.56;5240279;28;20099;-83
2022/07/21 08:05:45;;;;;;;13.30;10.30;;;;;;;19.05;100.00;101649.66;5250072;28;20029;-84
2022/07/21 08:08:16;;;;;;;11.77;10.07;;;;;;;18.98;100.00;101654.63;5251838;28;20503;-84
2022/07/21 08:10:48;;;;;;;10.67;9.53;;;;;;;19.01;100.00;101653.56;5241004;28;20029;-83
2022/07/21 08:13:19;;;;;;;11.07;9.27;;;;;;;18.86;100.00;101649.38;5242979;28;20059;-83
2022/07/21 08:15:51;;;;;;;10.47;8.97;;;;;;;19.03;100.00;101651.59;5230862;28;20501;-84
2022/07/21 08:18:22;;;;;;;9.13;8.23;;;;;;;18.89;100.00;101656.25;5235450;28;20064;-84
2022/07/21 08:20:53;;;;;;;12.57;8.50;;;;;;;18.94;100.00;101647.88;5245141;28;20108;-83
2022/07/21 08:23:25;;;;;;;9.73;8.60;;;;;;;18.89;100.00;101655.38;5250004;28;20104;-83
2022/07/21 08:25:56;;;;;;;9.03;7.27;;;;;;;18.95;100.00;101647.78;5249343;28;20029;-77
2022/07/21 08:28:28;;;;;;;7.97;7.17;;;;;;;18.96;100.00;101659.22;5249951;28;20165;-84
2022/07/21 08:30:59;;;;;;;7.67;6.63;;;;;;;18.82;100.00;101644.44;5244920;28;20395;-84
2022/07/21 08:33:30;;;;;;;8.13;6.87;;;;;;;18.91;100.00;101658.75;5244753;28;20036;-84
2022/07/21 08:36:01;;;;;;;10.07;8.10;;;;;;;18.94;100.00;101654.03;5242137;28;20025;-83
2022/07/21 08:38:35;;;;;;;8.50;7.40;;;;;;;18.99;100.00;101651.00;5231273;28;20032;-84
2022/07/21 08:41:08;;;;;;;8.40;6.85;;;;;;;19.05;100.00;101657.63;5238558;28;20387;-83
2022/07/21 08:43:42;;;;;;;11.90;7.87;;;;;;;19.01;100.00;101659.69;5248663;28;20695;-83
2022/07/21 08:46:15;;;;;;;10.20;8.37;;;;;;;18.84;100.00;101666.38;5240853;28;20028;-83
2022/07/21 08:48:48;;;;;;;8.50;7.70;;;;;;;18.97;100.00;101655.63;5244419;28;20625;-85
2022/07/21 08:51:19;;;;;;;9.30;8.30;;;;;;;18.85;100.00;101663.59;5245174;28;20032;-84
2022/07/21 08:53:50;;;;;;;11.30;8.47;;;;;;;18.86;100.00;101660.00;5216168;28;20030;-84
2022/07/21 08:56:22;;;;;;;8.73;7.83;;;;;;;18.93;100.00;101667.44;5215552;28;20128;-83
2022/07/21 08:58:53;;;;;;;9.43;8.53;;;;;;;18.97;100.00;101659.09;5208707;28;20025;-83
2022/07/21 09:01:26;;;;;;;12.73;8.70;;;;;;;18.98;100.00;101666.09;5230418;28;20084;-85
2022/07/21 09:04:21;;;;;;;10.53;9.43;;;;;;;19.03;100.00;101663.06;5247335;28;20033;-83
2022/07/21 09:06:58;;;;;;;10.73;9.63;;;;;;;18.94;100.00;101661.16;5231265;28;20029;-84
2022/07/21 09:09:33;;;;;;;11.53;10.40;;;;;;;18.94;100.00;101661.16;5217035;28;20025;-83
2022/07/21 09:12:06;;;;;;;12.97;10.23;;;;;;;19.01;100.00;101664.16;5213425;28;20021;-84
2022/07/21 09:14:37;;;;;;;10.30;9.30;;;;;;;19.02;100.00;101666.69;5241085;28;20021;-83
2022/07/21 09:17:09;;;;;;;10.07;8.83;;;;;;;18.95;100.00;101670.81;5218523;28;20025;-83
2022/07/21 09:19:45;;;;;;;10.93;8.97;;;;;;;19.01;100.00;101680.09;5245232;28;20029;-84
2022/07/21 09:22:18;;;;;;;8.63;7.70;;;;;;;18.90;100.00;101663.25;5243660;28;20032;-83
2022/07/21 09:24:51;;;;;;;8.73;7.93;;;;;;;18.92;100.00;101665.78;5231235;28;20502;-83
2022/07/21 09:27:23;;;;;;;8.13;7.33;;;;;;;18.87;100.00;101668.78;5248340;28;20387;-83
2022/07/21 09:30:00;;;;;;;9.57;8.60;;;;;;;19.04;100.00;101680.66;5229554;28;20016;-83
2022/07/21 09:32:36;;;;;;;9.37;8.10;;;;;;;19.05;100.00;101668.22;5226464;28;20375;-83
2022/07/21 09:35:13;;;;;;;8.63;7.73;;;;;;;18.96;100.00;101677.81;5229889;28;20039;-83
2022/07/21 09:37:44;;;;;;;8.07;7.10;;;;;;;18.95;100.00;101676.13;5248318;28;20025;-83
2022/07/21 09:40:16;;;;;;;6.00;5.10;;;;;;;18.92;100.00;101679.03;5244807;28;20094;-82
2022/07/21 09:42:49;;;;;;;7.93;5.27;;;;;;;18.92;100.00;101687.81;5209254;28;20037;-83
2022/07/21 09:45:20;;;;;;;4.70;4.30;;;;;;;18.85;100.00;101687.50;5239741;28;20021;-83
2022/07/21 09:47:52;;;;;;;5.80;4.50;;;;;;;18.77;100.00;101692.59;5248569;28;20036;-83
2022/07/21 09:50:23;;;;;;;4.83;4.40;;;;;;;18.79;100.00;101693.31;5243380;28;20029;-82
2022/07/21 09:52:57;;;;;;;6.63;5.20;;;;;;;18.65;100.00;101685.63;5209811;28;20029;-83
2022/07/21 09:55:30;;;;;;;5.35;4.85;;;;;;;18.70;100.00;101688.75;5242725;28;20029;-84
2022/07/21 09:58:02;;;;;;;6.03;5.43;;;;;;;18.80;100.00;101699.47;5246753;28;20489;-83
2022/07/21 10:00:33;;;;;;;5.80;5.20;;;;;;;18.68;100.00;101691.53;5224025;28;20070;-84
2022/07/21 10:03:05;;;;;;;5.50;5.00;;;;;;;18.69;100.00;101692.38;5238116;28;20048;-83
2022/07/21 10:05:37;;;;;;;6.67;5.60;;;;;;;18.72;100.00;101697.44;5247629;28;20029;-83
2022/07/21 10:08:08;;;;;;;7.63;6.37;;;;;;;18.80;100.00;101705.59;5247250;28;20025;-83
2022/07/21 10:10:39;;;;;;;7.33;4.73;;;;;;;18.69;100.00;101703.00;5240796;28;20037;-83
2022/07/21 10:13:11;;;;;;;6.67;5.70;;;;;;;18.64;100.00;101707.84;5230225;28;20037;-83
2022/07/21 10:15:46;;;;;;;6.20;5.60;;;;;;;18.59;100.00;101716.13;5242923;28;20109;-83
2022/07/21 10:18:19;;;;;;;5.77;5.27;;;;;;;18.83;100.00;101720.44;5247146;28;20648;-81
2022/07/21 10:20:57;;;;;;;8.23;6.93;;;;;;;18.86;100.00;101718.38;5239190;28;20040;-82
2022/07/21 10:23:37;;;;;;;6.83;6.13;;;;;;;18.95;100.00;101718.59;5230544;28;20018;-82
2022/07/21 10:26:10;;;;;;;6.30;5.67;;;;;;;18.82;100.00;101718.75;5229182;28;20029;-82
2022/07/21 10:28:43;;;;;;;8.30;5.65;;;;;;;18.77;100.00;101716.47;5246806;28;20056;-83
2022/07/21 10:31:18;;;;;;;7.23;6.50;;;;;;;18.90;100.00;101726.94;5241118;28;20724;-83
2022/07/21 10:33:49;;;;;;;7.97;7.13;;;;;;;18.98;100.00;101731.59;5246789;28;20025;-83
2022/07/21 10:36:27;;;;;;;6.97;6.37;;;;;;;19.12;100.00;101741.13;5247683;28;20024;-81
2022/07/21 10:39:23;;;;;;;8.37;6.40;;;;;;;19.23;100.00;101737.59;5246946;28;20048;-81
2022/07/21 10:41:56;;;;;;;6.40;5.80;;;;;;;19.15;100.00;101740.03;5237155;28;20041;-82
2022/07/21 10:44:27;;;;;;;8.70;6.90;;;;;;;19.15;100.00;101734.72;5240177;28;20094;-81
2022/07/21 10:47:04;;;;;;;8.00;6.77;;;;;;;19.18;100.00;101737.13;5240066;28;20033;-81
2022/07/21 10:49:43;;;;;;;8.40;6.27;;;;;;;19.12;100.00;101742.94;5241636;28;20025;-83
2022/07/21 10:52:39;;;;;;;11.47;6.77;;;;;;;19.05;100.00;101737.25;5238026;28;20571;-82
2022/07/21 10:55:29;;;;;;;7.97;6.17;;;;;;;18.98;100.00;101744.88;5241022;28;20035;-83
2022/07/21 10:58:26;;;;;;;11.17;5.97;;;;;;;19.06;100.00;101747.75;5242418;28;20021;-81
2022/07/21 11:00:59;;;;;;;7.90;5.50;;;;;;;18.85;100.00;101745.88;5228667;28;20159;-81
2022/07/21 11:03:34;;;;;;;7.10;6.07;;;;;;;18.99;100.00;101757.16;5236304;28;20060;-81
2022/07/21 11:06:06;;;;;;;7.40;5.67;;;;;;;18.88;100.00;101742.16;5220718;28;20159;-81
2022/07/21 11:08:46;;;;;;;7.50;6.20;;;;;;;18.94;100.00;101738.97;5237962;28;20061;-80
2022/07/21 11:11:27;;;;;;;7.73;6.10;;;;;;;18.88;100.00;101744.81;5218325;28;20017;-81
2022/07/21 11:14:05;;;;;;;12.77;6.37;;;;;;;18.86;100.00;101750.22;5238378;28;20049;-81
2022/07/21 11:16:39;;;;;;;9.20;6.57;;;;;;;18.91;100.00;101749.84;5222404;28;20035;-82
2022/07/21 11:19:40;;;;;;;;;;;;;;;19.16;100.00;101757.66;5247003;28;20416;-82
2022/07/21 11:22:20;;;;;;;8.07;5.77;;;;;;;19.01;100.00;101752.59;5207973;28;20364;-81
2022/07/21 11:24:57;;;;;;;11.17;5.37;;;;;;;19.03;100.00;101758.63;5243786;28;20142;-81
2022/07/21 11:27:31;;;;;;;8.70;6.00;;;;;;;18.97;100.00;101753.81;5250979;28;20086;-81
2022/07/21 11:30:06;;;;;;;8.68;6.35;;;;;;;18.89;100.00;101766.84;5248764;28;20025;-81
2022/07/21 11:32:37;;;;;;;8.40;5.60;;;;;;;18.86;100.00;101768.81;5236178;28;20022;-79
2022/07/21 11:35:12;;;;;;;8.67;5.70;;;;;;;18.80;100.00;101763.16;5225678;28;20388;-80
2022/07/21 11:37:45;;;;;;;8.67;5.50;;;;;;;18.80;100.00;101776.44;5246731;28;20041;-79